Time;durP1;ratioP1;P1;durP2;ratioP2;P2;SDS_P1;SDS_P2;PMS_P1;PMS_P2;Temp;Humidity;BMP_temperature;BMP_pressure;BME280_temperature;BME280_humidity;BME280_pressure;Samples;Min_cycle;Max_cycle;Signal;HPM_P1;HPM_P2
2023/01/29 00:01:04;;;;;;;4.23;1.90;;;;;;;17.90;51.26;101539.97;5066972;28;20525;-61
2023/01/29 00:03:30;;;;;;;5.60;2.13;;;;;;;17.88;50.86;101534.59;5060816;28;20874;-61
2023/01/29 00:05:55;;;;;;;3.70;2.07;;;;;;;17.87;51.37;101538.66;5072133;28;20459;-61
2023/01/29 00:08:21;;;;;;;5.50;1.70;;;;;;;17.87;51.44;101538.66;5065138;28;20205;-60
2023/01/29 00:10:47;;;;;;;4.70;2.10;;;;;;;17.85;51.28;101538.13;5067276;28;20277;-60
2023/01/29 00:13:12;;;;;;;5.53;2.30;;;;;;;17.86;51.32;101528.38;5079846;28;20221;-60
2023/01/29 00:15:38;;;;;;;4.13;1.77;;;;;;;17.89;51.33;101526.84;5089891;28;20240;-60
2023/01/29 00:18:03;;;;;;;5.83;1.80;;;;;;;17.89;51.07;101524.84;5074281;28;20218;-60
2023/01/29 00:20:29;;;;;;;4.17;2.00;;;;;;;17.87;51.08;101521.50;5070090;28;20175;-60
2023/01/29 00:22:55;;;;;;;4.67;2.47;;;;;;;17.87;51.21;101521.50;5066308;28;20274;-61
2023/01/29 00:25:20;;;;;;;4.23;2.10;;;;;;;17.89;51.35;101524.00;5069528;28;20409;-60
2023/01/29 00:27:46;;;;;;;4.80;2.20;;;;;;;17.90;51.88;101519.97;5070278;28;20614;-60
2023/01/29 00:30:11;;;;;;;5.50;2.33;;;;;;;17.88;51.22;101516.63;5065120;28;20213;-60
2023/01/29 00:32:40;;;;;;;4.40;2.13;;;;;;;17.84;51.21;101516.47;5065806;28;20237;-60
2023/01/29 00:35:07;;;;;;;5.10;2.07;;;;;;;17.83;51.48;101519.66;5080248;28;20213;-60
2023/01/29 00:37:32;;;;;;;3.20;1.83;;;;;;;17.85;51.47;101515.28;5080830;28;20438;-60
2023/01/29 00:39:58;;;;;;;6.70;2.23;;;;;;;17.85;51.26;101521.00;5060155;28;20500;-61
2023/01/29 00:45:08;;;;;;;6.97;2.93;;;;;;;17.84;51.59;101516.47;5054001;28;20218;-60
2023/01/29 00:47:34;;;;;;;3.70;1.90;;;;;;;17.88;51.21;101520.31;5051940;28;20786;-61
2023/01/29 00:50:00;;;;;;;6.33;2.43;;;;;;;17.81;51.38;101510.63;5066741;28;20461;-61
2023/01/29 00:52:26;;;;;;;5.60;2.10;;;;;;;17.87;50.93;101512.94;5069683;28;20627;-61
2023/01/29 00:54:52;;;;;;;5.63;2.87;;;;;;;17.83;51.52;101523.38;5047807;28;20453;-60
2023/01/29 00:57:18;;;;;;;6.03;2.20;;;;;;;17.87;51.45;101510.09;5069648;28;20199;-61
2023/01/29 00:59:43;;;;;;;4.40;2.00;;;;;;;17.87;51.07;101506.38;5069428;28;20428;-60
2023/01/29 01:04:53;;;;;;;4.27;1.97;;;;;;;17.86;51.18;101516.13;5083990;28;20192;-61
2023/01/29 01:07:18;;;;;;;5.73;2.37;;;;;;;17.86;51.13;101516.13;5063585;28;20850;-61
2023/01/29 01:12:27;;;;;;;7.20;2.30;;;;;;;17.88;51.27;101510.91;5068046;28;20293;-61
2023/01/29 01:14:53;;;;;;;5.80;2.80;;;;;;;17.86;51.18;101513.28;5022388;28;20809;-61
2023/01/29 01:17:18;;;;;;;3.77;1.97;;;;;;;17.87;51.01;101512.09;5009095;28;20185;-60
2023/01/29 01:19:44;;;;;;;3.20;2.00;;;;;;;17.84;51.34;101527.91;5008743;28;20165;-61
2023/01/29 01:22:09;;;;;;;4.83;2.30;;;;;;;17.82;51.36;101527.44;5010047;28;20203;-60
2023/01/29 01:24:35;;;;;;;4.00;2.17;;;;;;;17.83;51.40;101519.66;5008821;28;20185;-61
2023/01/29 01:27:00;;;;;;;4.10;2.17;;;;;;;17.81;51.11;101520.00;5013548;28;20203;-60
2023/01/29 01:29:26;;;;;;;3.50;2.07;;;;;;;17.82;51.32;101521.72;5026528;28;20188;-61
2023/01/29 01:31:54;;;;;;;4.70;2.10;;;;;;;17.84;51.40;101522.19;5009155;28;20589;-61
2023/01/29 01:34:20;;;;;;;4.47;2.20;;;;;;;17.85;51.35;101525.91;5016576;28;20225;-61
2023/01/29 01:36:46;;;;;;;5.73;1.87;;;;;;;17.86;51.38;101519.00;5026729;28;20798;-60
2023/01/29 01:39:12;;;;;;;4.87;2.10;;;;;;;17.90;51.33;101526.50;5029075;28;20426;-61
2023/01/29 01:41:37;;;;;;;3.77;2.00;;;;;;;17.83;51.35;101526.22;5029426;28;20187;-60
2023/01/29 01:44:03;;;;;;;3.73;1.80;;;;;;;17.85;51.14;101523.84;5025728;28;20234;-60
2023/01/29 01:46:33;;;;;;;4.53;2.00;;;;;;;17.81;51.29;101534.28;5010613;28;20165;-61
2023/01/29 01:49:10;;;;;;;2.80;1.70;;;;;;;17.80;51.29;101526.91;5013408;28;20204;-61
2023/01/29 01:51:41;;;;;;;4.73;2.00;;;;;;;17.79;51.34;101533.81;5016063;28;20446;-60
2023/01/29 01:54:09;;;;;;;3.83;1.80;;;;;;;17.76;51.32;101528.78;5033077;28;20431;-60
2023/01/29 01:56:41;;;;;;;5.27;1.73;;;;;;;17.83;51.08;101529.09;5021010;28;21134;-61
2023/01/29 01:59:12;;;;;;;3.67;2.47;;;;;;;17.85;51.25;101523.84;5019084;28;20452;-61
2023/01/29 02:01:41;;;;;;;3.77;1.90;;;;;;;17.81;51.40;101525.72;5030084;28;20806;-60
2023/01/29 02:09:51;;;;;;;3.00;1.73;;;;;;;17.76;51.32;101519.41;5035251;28;20655;-61
2023/01/29 02:12:17;;;;;;;3.70;2.07;;;;;;;17.79;51.36;101513.81;5018328;28;20467;-61
2023/01/29 02:14:42;;;;;;;4.13;1.73;;;;;;;17.83;51.40;101516.81;5049056;28;20480;-60
2023/01/29 02:17:11;;;;;;;3.43;1.90;;;;;;;17.81;51.44;101516.34;5034557;28;20245;-61
2023/01/29 02:19:48;;;;;;;2.97;1.70;;;;;;;17.76;51.08;101519.41;5052718;28;20649;-60
2023/01/29 02:22:38;;;;;;;4.50;2.10;;;;;;;17.78;51.54;101517.88;5054444;28;20441;-60
2023/01/29 02:25:26;;;;;;;3.53;2.00;;;;;;;17.79;51.24;101516.69;5036441;28;20422;-61
2023/01/29 02:28:22;;;;;;;4.30;2.40;;;;;;;17.80;51.26;101515.50;5052407;28;20504;-60
2023/01/29 02:31:18;;;;;;;3.20;2.13;;;;;;;17.81;50.91;101508.59;5054073;28;20445;-61
2023/01/29 02:34:02;;;;;;;4.20;2.10;;;;;;;17.75;51.18;101518.53;5054772;28;20457;-60
2023/01/29 02:36:48;;;;;;;3.93;2.10;;;;;;;17.74;51.00;101522.59;5052157;28;20806;-61
2023/01/29 02:39:14;;;;;;;3.53;1.90;;;;;;;17.78;51.19;101526.44;5053269;28;20442;-60
2023/01/29 02:41:43;;;;;;;2.97;1.40;;;;;;;17.78;51.10;101523.59;5052793;28;20421;-60
2023/01/29 02:44:33;;;;;;;3.43;1.93;;;;;;;17.73;51.66;101515.22;5036312;28;20421;-60
2023/01/29 02:47:36;;;;;;;3.27;2.00;;;;;;;17.75;51.07;101517.72;5069916;28;20420;-61
2023/01/29 02:50:32;;;;;;;3.33;2.10;;;;;;;17.77;51.19;101521.91;4991450;28;20496;-61
2023/01/29 02:53:14;;;;;;;2.90;1.73;;;;;;;17.73;51.30;101517.22;5024350;28;20445;-61
2023/01/29 02:55:59;;;;;;;5.67;2.03;;;;;;;17.76;51.00;101520.22;5051736;28;20457;-61
2023/01/29 02:58:30;;;;;;;5.17;1.90;;;;;;;17.77;51.27;101510.50;5050605;28;20939;-60
2023/01/29 03:00:58;;;;;;;3.57;1.93;;;;;;;17.74;51.45;101516.88;5050293;28;20418;-60
2023/01/29 03:03:30;;;;;;;3.30;1.80;;;;;;;17.77;51.04;101516.19;5046128;28;20475;-60
2023/01/29 03:06:01;;;;;;;4.57;2.07;;;;;;;17.74;51.33;101516.88;5057402;28;20412;-60
2023/01/29 03:08:36;;;;;;;3.50;1.83;;;;;;;17.68;51.48;101514.56;5074616;28;20489;-61
2023/01/29 03:11:05;;;;;;;3.17;1.80;;;;;;;17.70;51.51;101515.91;5072047;28;20783;-61
2023/01/29 03:13:40;;;;;;;3.17;1.97;;;;;;;17.75;51.44;101517.72;5035413;28;20469;-61
2023/01/29 03:16:23;;;;;;;3.53;1.67;;;;;;;17.74;51.23;101514.03;5050683;28;20464;-60
2023/01/29 03:18:55;;;;;;;3.13;1.97;;;;;;;17.75;51.05;101514.88;5053848;28;20904;-60
2023/01/29 03:32:28;;;;;;;3.17;1.83;;;;;;;17.70;51.22;101503.66;5041896;28;20489;-61
2023/01/29 03:34:57;;;;;;;3.47;2.00;;;;;;;17.66;51.47;101509.19;5069354;28;20441;-61
2023/01/29 03:37:36;;;;;;;3.37;1.73;;;;;;;17.67;51.26;101510.03;5032896;28;20178;-60
2023/01/29 03:40:03;;;;;;;3.07;1.87;;;;;;;17.68;51.59;101509.69;5045882;28;20517;-61
2023/01/29 03:42:34;;;;;;;2.80;1.40;;;;;;;17.68;51.48;101515.41;5053035;28;20464;-61
2023/01/29 03:45:10;;;;;;;3.10;1.60;;;;;;;17.67;51.55;101512.91;5050778;28;20460;-60
2023/01/29 03:47:35;;;;;;;3.30;1.80;;;;;;;17.68;51.08;101518.28;5050923;28;20429;-60
2023/01/29 03:50:27;;;;;;;3.03;1.80;;;;;;;17.66;51.32;101517.75;5070797;28;21086;-61
2023/01/29 03:53:19;;;;;;;3.30;1.83;;;;;;;17.70;51.42;101520.78;5067088;28;20191;-60
2023/01/29 03:56:01;;;;;;;4.23;1.87;;;;;;;17.70;50.91;101518.75;5058922;28;20840;-60
2023/01/29 03:58:34;;;;;;;3.63;2.17;;;;;;;17.69;51.20;101519.94;5068404;28;20512;-60
2023/01/29 04:01:17;;;;;;;3.97;2.00;;;;;;;17.67;51.52;101515.75;5069052;28;20888;-60
2023/01/29 04:04:03;;;;;;;3.27;1.57;;;;;;;17.70;51.24;101513.03;5053583;28;20428;-60
2023/01/29 04:06:30;;;;;;;4.23;1.90;;;;;;;17.69;51.27;101508.50;5047238;28;20456;-61
2023/01/29 04:08:57;;;;;;;2.70;1.70;;;;;;;17.69;50.91;101513.38;5069494;28;20791;-61
2023/01/29 04:11:23;;;;;;;3.60;1.83;;;;;;;17.68;51.28;101515.41;5042991;28;20442;-61
2023/01/29 04:13:48;;;;;;;3.97;1.77;;;;;;;17.68;51.07;101512.56;5055405;28;20839;-60
2023/01/29 04:16:17;;;;;;;3.70;2.03;;;;;;;17.73;50.80;101520.06;5031336;28;20710;-60
2023/01/29 04:18:46;;;;;;;3.10;1.70;;;;;;;17.62;51.52;101518.81;5029729;28;20176;-61
2023/01/29 04:21:12;;;;;;;3.00;1.80;;;;;;;17.68;51.36;101514.56;5032353;28;20459;-60
2023/01/29 04:23:37;;;;;;;2.57;1.30;;;;;;;17.70;51.04;101513.03;5034405;28;20449;-60
2023/01/29 04:26:20;;;;;;;3.93;1.80;;;;;;;17.69;51.32;101519.09;5049688;28;20484;-60
2023/01/29 04:29:09;;;;;;;2.77;2.10;;;;;;;17.71;51.15;101517.56;5034625;28;20264;-61
2023/01/29 04:31:40;;;;;;;3.33;1.83;;;;;;;17.66;51.46;101514.91;5002792;28;20434;-61
2023/01/29 04:34:18;;;;;;;2.73;1.60;;;;;;;17.64;51.37;101517.28;5021664;28;20425;-60
2023/01/29 04:37:48;;;;;;;3.97;1.70;;;;;;;17.66;50.89;101514.91;5051401;28;20421;-61
2023/01/29 04:40:19;;;;;;;4.13;2.37;;;;;;;17.64;51.37;101505.84;4938429;28;20433;-60
2023/01/29 04:42:48;;;;;;;3.00;1.50;;;;;;;17.65;51.10;101507.53;4950799;28;20438;-61
2023/01/29 04:45:19;;;;;;;2.77;1.40;;;;;;;17.64;51.21;101513.56;5007786;28;20483;-61
2023/01/29 04:48:12;;;;;;;3.00;1.97;;;;;;;17.65;51.51;101507.53;5052182;28;20450;-60
2023/01/29 04:50:40;;;;;;;3.57;2.03;;;;;;;17.69;51.40;101511.38;5031752;28;20517;-60
2023/01/29 04:53:28;;;;;;;2.87;1.60;;;;;;;17.63;50.98;101511.91;5022362;28;20449;-61
2023/01/29 04:56:18;;;;;;;2.43;1.57;;;;;;;17.63;51.47;101509.91;5042455;28;20409;-61
2023/01/29 04:58:48;;;;;;;2.80;1.77;;;;;;;17.66;51.40;101509.19;5032736;28;20540;-61
2023/01/29 05:01:15;;;;;;;2.50;1.60;;;;;;;17.69;51.05;101514.22;5015433;28;20410;-61
2023/01/29 05:03:42;;;;;;;2.83;1.77;;;;;;;17.64;51.25;101505.00;5046727;28;20573;-60
2023/01/29 05:06:08;;;;;;;2.23;1.53;;;;;;;17.61;51.39;101506.53;5057173;28;21242;-60
2023/01/29 05:08:34;;;;;;;3.53;2.33;;;;;;;17.68;51.36;101506.00;5049572;28;20450;-60
2023/01/29 05:11:00;;;;;;;2.57;1.83;;;;;;;17.60;51.35;101516.28;5029082;28;20934;-60
2023/01/29 05:13:25;;;;;;;2.90;1.90;;;;;;;17.64;51.07;101520.13;5060488;28;20486;-60
2023/01/29 05:15:56;;;;;;;3.00;1.60;;;;;;;17.66;50.95;101520.63;5048707;28;20263;-60
2023/01/29 05:18:22;;;;;;;1.90;1.40;;;;;;;17.73;50.83;101520.94;5033624;28;20267;-60
2023/01/29 05:20:47;;;;;;;3.43;1.60;;;;;;;17.69;50.76;101524.81;5086495;28;20420;-61
2023/01/29 05:23:17;;;;;;;3.50;1.60;;;;;;;17.67;51.16;101525.16;5071526;28;20174;-61
2023/01/29 05:25:43;;;;;;;3.77;2.00;;;;;;;17.68;50.83;101523.13;5063717;28;20195;-60
2023/01/29 05:28:15;;;;;;;4.10;1.90;;;;;;;17.68;50.72;101521.13;5031287;28;20418;-60
2023/01/29 05:30:41;;;;;;;2.53;1.47;;;;;;;17.64;51.41;101507.88;5051355;28;20179;-61
2023/01/29 05:33:19;;;;;;;3.40;1.73;;;;;;;17.58;51.49;101507.25;5048938;28;20458;-60
2023/01/29 05:35:45;;;;;;;4.70;2.00;;;;;;;17.62;51.37;101488.25;5062760;28;20514;-60
2023/01/29 05:38:10;;;;;;;3.10;1.50;;;;;;;17.64;51.09;101485.03;5068933;28;20931;-61
2023/01/29 05:40:36;;;;;;;2.43;1.53;;;;;;;17.65;50.69;101481.00;5068967;28;20167;-60
2023/01/29 05:43:01;;;;;;;2.47;1.50;;;;;;;17.62;51.11;101473.97;5069257;28;20187;-60
2023/01/29 05:45:27;;;;;;;3.00;1.83;;;;;;;17.62;50.83;101484.53;5054417;28;20187;-61
2023/01/29 05:47:59;;;;;;;2.87;1.90;;;;;;;17.60;51.08;101498.34;5049117;28;20168;-61
2023/01/29 05:50:25;;;;;;;3.37;1.70;;;;;;;17.67;50.98;101496.63;5050532;28;20550;-60
2023/01/29 05:52:58;;;;;;;5.20;1.50;;;;;;;17.71;50.53;101491.03;5049096;28;20422;-60
2023/01/29 05:55:23;;;;;;;4.00;2.33;;;;;;;17.68;50.88;101483.16;5057559;28;20414;-61
2023/01/29 05:57:48;;;;;;;2.53;1.77;;;;;;;17.69;51.47;101496.25;5069028;28;20471;-61
2023/01/29 06:00:15;;;;;;;2.40;1.60;;;;;;;17.60;51.25;101504.06;5054873;28;20183;-61
2023/01/29 06:02:40;;;;;;;4.17;1.70;;;;;;;17.60;50.72;101496.31;5066029;28;20183;-60
2023/01/29 06:05:06;;;;;;;2.67;1.53;;;;;;;17.64;51.04;101494.44;5087818;28;20756;-60
2023/01/29 06:07:32;;;;;;;2.80;1.70;;;;;;;17.63;50.86;101506.19;5074445;28;20214;-61
2023/01/29 06:09:57;;;;;;;3.10;1.73;;;;;;;17.64;50.92;101520.13;5068404;28;20259;-60
2023/01/29 06:12:22;;;;;;;2.80;1.73;;;;;;;17.68;50.90;101515.41;5066783;28;20437;-61
2023/01/29 06:14:48;;;;;;;2.63;1.70;;;;;;;17.64;51.04;101516.44;5067042;28;20233;-61
2023/01/29 06:17:13;;;;;;;3.70;1.90;;;;;;;17.65;51.00;101518.94;5068454;28;20176;-61
2023/01/29 06:19:39;;;;;;;4.50;2.47;;;;;;;17.66;51.22;101526.31;5068868;28;20167;-60
2023/01/29 06:22:04;;;;;;;2.50;1.60;;;;;;;17.66;50.87;101537.75;5064094;28;20183;-60
2023/01/29 06:24:31;;;;;;;3.13;1.90;;;;;;;17.70;50.55;101526.50;5048782;28;20195;-60
2023/01/29 06:26:57;;;;;;;2.23;1.40;;;;;;;17.64;51.17;101528.72;5048228;28;20186;-60
2023/01/29 06:29:22;;;;;;;2.53;1.50;;;;;;;17.67;50.61;101525.16;5050747;28;20461;-61
2023/01/29 06:31:47;;;;;;;2.90;1.60;;;;;;;17.67;50.78;101522.31;5048566;28;20168;-60
2023/01/29 06:34:13;;;;;;;2.60;1.90;;;;;;;17.67;50.89;101522.31;5058966;28;20654;-60
2023/01/29 06:36:40;;;;;;;4.00;1.90;;;;;;;17.67;50.95;101527.19;5071835;28;20185;-61
2023/01/29 06:39:05;;;;;;;2.77;1.97;;;;;;;17.60;51.06;101522.00;5071379;28;20222;-61
2023/01/29 06:41:31;;;;;;;4.40;1.80;;;;;;;17.64;50.92;101528.72;5067256;28;20437;-60
2023/01/29 06:43:56;;;;;;;2.33;1.47;;;;;;;17.58;51.08;101524.38;5057791;28;20206;-60
2023/01/29 06:46:22;;;;;;;2.23;1.40;;;;;;;17.63;51.02;101526.19;5051879;28;20175;-60
2023/01/29 06:48:47;;;;;;;3.13;1.77;;;;;;;17.67;51.03;101522.31;5052051;28;20222;-61
2023/01/29 06:51:12;;;;;;;3.10;2.13;;;;;;;17.63;50.96;101521.31;5054102;28;20183;-60
2023/01/29 06:53:38;;;;;;;2.93;1.80;;;;;;;17.63;51.06;101518.47;5052019;28;20235;-60
2023/01/29 06:56:04;;;;;;;2.90;1.70;;;;;;;17.67;50.71;101516.59;5051218;28;20255;-60
2023/01/29 06:58:29;;;;;;;1.97;1.20;;;;;;;17.63;50.90;101517.63;5054153;28;20895;-61
2023/01/29 07:01:03;;;;;;;2.90;1.70;;;;;;;17.69;50.61;101513.38;5056832;28;20421;-60
2023/01/29 07:03:28;;;;;;;2.80;1.50;;;;;;;17.61;50.67;101517.97;5076487;28;20268;-60
2023/01/29 07:05:53;;;;;;;3.10;2.00;;;;;;;17.65;50.84;101512.41;5088917;28;20419;-60
2023/01/29 07:08:21;;;;;;;2.93;1.70;;;;;;;17.66;50.95;101503.47;5087010;28;20154;-61
2023/01/29 07:10:47;;;;;;;3.17;1.73;;;;;;;17.64;51.10;101503.00;5069317;28;20273;-61
2023/01/29 07:13:13;;;;;;;4.33;1.83;;;;;;;17.69;50.86;101507.66;5053552;28;20460;-60
2023/01/29 07:15:38;;;;;;;2.63;1.63;;;;;;;17.67;50.52;101513.75;5070870;28;20467;-61
2023/01/29 07:18:10;;;;;;;2.27;1.63;;;;;;;17.63;50.98;101520.47;5067980;28;20171;-60
2023/01/29 07:20:36;;;;;;;2.30;1.50;;;;;;;17.64;50.77;101528.72;5051167;28;20221;-60
2023/01/29 07:23:01;;;;;;;2.70;1.57;;;;;;;17.70;50.73;101523.66;5051485;28;20802;-60
2023/01/29 07:25:26;;;;;;;3.73;1.50;;;;;;;17.65;50.95;101523.84;5085654;28;20186;-60
2023/01/29 07:27:52;;;;;;;2.70;1.60;;;;;;;17.66;51.06;101531.22;5091654;28;20177;-61
2023/01/29 07:30:17;;;;;;;3.80;2.00;;;;;;;17.63;50.80;101535.59;5072843;28;20567;-60
2023/01/29 07:32:43;;;;;;;3.23;1.70;;;;;;;17.61;51.17;101543.66;5050513;28;20609;-60
2023/01/29 07:35:09;;;;;;;2.70;1.50;;;;;;;17.60;51.05;101544.84;5073473;28;20163;-61
2023/01/29 07:37:34;;;;;;;2.60;1.80;;;;;;;17.66;50.59;101549.19;5053245;28;20183;-60
2023/01/29 07:40:00;;;;;;;2.60;1.80;;;;;;;17.70;50.61;101550.16;5050843;28;20190;-60
2023/01/29 07:42:25;;;;;;;3.10;1.90;;;;;;;17.71;50.60;101557.53;5057821;28;20187;-60
2023/01/29 07:44:50;;;;;;;2.80;1.40;;;;;;;17.64;50.59;101550.69;5069522;28;20241;-60
2023/01/29 07:47:16;;;;;;;3.30;1.93;;;;;;;17.67;50.89;101555.75;5064204;28;20205;-61
2023/01/29 07:49:41;;;;;;;3.33;1.97;;;;;;;17.64;50.58;101551.56;5058486;28;20194;-60
2023/01/29 07:52:07;;;;;;;3.07;1.63;;;;;;;17.60;50.98;101550.56;5069691;28;20589;-60
2023/01/29 07:54:32;;;;;;;2.43;1.57;;;;;;;17.67;50.89;101558.59;5067514;28;20183;-61
2023/01/29 07:56:57;;;;;;;2.30;1.47;;;;;;;17.66;50.67;101557.75;5069859;28;20178;-60
2023/01/29 07:59:23;;;;;;;3.70;1.50;;;;;;;17.63;50.96;101552.75;5061492;28;20186;-61
2023/01/29 08:01:48;;;;;;;2.33;1.30;;;;;;;17.58;50.88;101567.22;5050189;28;20203;-60
2023/01/29 08:04:14;;;;;;;2.57;1.60;;;;;;;17.63;51.01;101569.88;5071291;28;20170;-60
2023/01/29 08:06:39;;;;;;;2.60;1.80;;;;;;;17.67;50.93;101579.44;5052005;28;20179;-60
2023/01/29 08:09:05;;;;;;;2.30;1.70;;;;;;;17.68;50.62;101594.53;5052968;28;20564;-60
2023/01/29 08:11:30;;;;;;;3.00;1.47;;;;;;;17.67;50.74;101593.72;5060621;28;20654;-61
2023/01/29 08:13:56;;;;;;;2.53;1.47;;;;;;;17.60;50.69;101590.53;5069497;28;20219;-60
2023/01/29 08:16:21;;;;;;;3.00;1.70;;;;;;;17.61;51.02;101591.38;5067613;28;20167;-61
2023/01/29 08:18:47;;;;;;;2.50;1.50;;;;;;;17.67;50.41;101599.41;5052193;28;20236;-61
2023/01/29 08:21:13;;;;;;;2.50;1.50;;;;;;;17.72;50.50;101601.25;5049939;28;20198;-60
2023/01/29 08:23:38;;;;;;;3.13;1.70;;;;;;;17.71;50.53;101596.72;5059136;28;20504;-60
2023/01/29 08:26:04;;;;;;;2.30;1.60;;;;;;;17.67;50.35;101590.84;5069574;28;20210;-61
2023/01/29 08:28:29;;;;;;;2.70;1.40;;;;;;;17.67;50.75;101587.16;5067852;28;20198;-60
2023/01/29 08:30:55;;;;;;;3.10;1.83;;;;;;;17.70;50.50;101587.28;5069436;28;20194;-61
2023/01/29 08:33:20;;;;;;;3.50;1.50;;;;;;;17.66;50.53;101594.88;5070305;28;20186;-60
2023/01/29 08:35:49;;;;;;;2.10;1.53;;;;;;;17.69;50.61;101590.47;5069379;28;20186;-60
2023/01/29 08:38:15;;;;;;;2.50;1.53;;;;;;;17.69;50.71;101602.75;5064178;28;20188;-60
2023/01/29 08:40:40;;;;;;;3.13;1.57;;;;;;;17.68;50.77;101603.09;5065405;28;20903;-60
2023/01/29 08:43:06;;;;;;;2.20;1.63;;;;;;;17.67;50.65;101596.56;5068896;28;20236;-61
2023/01/29 08:45:32;;;;;;;2.73;1.70;;;;;;;17.66;50.56;101597.72;5051609;28;20669;-60
2023/01/29 08:47:58;;;;;;;2.50;1.43;;;;;;;17.66;50.83;101602.63;5049563;28;20176;-60
2023/01/29 08:50:23;;;;;;;2.03;1.50;;;;;;;17.69;50.53;101601.91;5051574;28;20530;-61
2023/01/29 08:52:49;;;;;;;3.30;2.07;;;;;;;17.68;50.92;101592.53;5049692;28;20171;-61
2023/01/29 08:55:14;;;;;;;3.30;1.40;;;;;;;17.71;50.44;101591.81;5060162;28;20171;-60
2023/01/29 08:57:39;;;;;;;2.77;1.67;;;;;;;17.74;50.66;101596.00;5051517;28;20183;-61
2023/01/29 09:00:06;;;;;;;3.20;1.83;;;;;;;17.71;50.63;101599.56;5048503;28;20270;-60
2023/01/29 09:02:32;;;;;;;2.20;1.50;;;;;;;17.70;50.63;101595.88;5063518;28;20257;-61
2023/01/29 09:04:57;;;;;;;2.40;1.60;;;;;;;17.74;50.75;101596.00;5087271;28;20936;-60
2023/01/29 09:07:23;;;;;;;2.80;1.67;;;;;;;17.71;50.42;101597.53;5070011;28;20194;-60
2023/01/29 09:09:48;;;;;;;3.20;1.83;;;;;;;17.67;50.66;101590.00;5058143;28;20207;-61
2023/01/29 09:12:13;;;;;;;2.97;1.80;;;;;;;17.72;50.54;101584.09;5067499;28;20248;-60
2023/01/29 09:14:39;;;;;;;3.07;1.30;;;;;;;17.71;50.59;101591.00;5050798;28;20227;-60
2023/01/29 09:17:04;;;;;;;3.60;2.00;;;;;;;17.70;50.48;101584.44;5047962;28;20229;-61
2023/01/29 09:19:30;;;;;;;2.13;1.40;;;;;;;17.67;50.51;101585.16;5050316;28;20180;-61
2023/01/29 09:21:55;;;;;;;2.83;1.70;;;;;;;17.71;50.85;101591.00;5066732;28;20262;-60
2023/01/29 09:24:20;;;;;;;2.50;1.50;;;;;;;17.72;50.34;101593.50;5066493;28;20667;-61
2023/01/29 09:26:46;;;;;;;2.73;1.50;;;;;;;17.71;50.19;101600.38;5050149;28;20565;-61
2023/01/29 09:29:11;;;;;;;2.83;1.57;;;;;;;17.69;50.74;101608.47;5048436;28;20658;-60
2023/01/29 09:31:37;;;;;;;2.03;1.47;;;;;;;17.74;50.24;101616.84;5050647;28;20199;-61
2023/01/29 09:34:02;;;;;;;2.27;1.50;;;;;;;17.75;50.55;101620.56;5054835;28;20170;-60
2023/01/29 09:36:28;;;;;;;2.50;1.97;;;;;;;17.71;50.28;101620.38;5082799;28;20187;-60
2023/01/29 09:38:53;;;;;;;2.60;1.70;;;;;;;17.69;50.72;101614.19;5067683;28;20179;-61
2023/01/29 09:41:25;;;;;;;2.20;1.40;;;;;;;17.71;50.53;101605.28;5050641;28;20171;-60
2023/01/29 09:44:01;;;;;;;3.00;1.70;;;;;;;17.74;50.64;101602.56;5061377;28;20190;-61
2023/01/29 09:46:32;;;;;;;2.97;1.83;;;;;;;17.68;50.33;101583.97;5050803;28;20417;-60
2023/01/29 09:49:06;;;;;;;2.77;1.70;;;;;;;17.72;50.54;101582.09;5049590;28;20483;-60
2023/01/29 09:51:34;;;;;;;3.20;1.70;;;;;;;17.70;50.25;101580.75;5034136;28;20417;-60
2023/01/29 09:54:13;;;;;;;2.23;1.57;;;;;;;17.69;50.38;101567.63;5051413;28;20432;-61
2023/01/29 09:56:39;;;;;;;2.93;1.70;;;;;;;17.73;50.49;101555.19;5032503;28;20422;-60
2023/01/29 09:59:04;;;;;;;2.70;1.50;;;;;;;17.75;50.31;101558.53;5031070;28;20410;-60
2023/01/29 10:01:40;;;;;;;1.70;1.27;;;;;;;17.70;50.49;101555.06;5048578;28;20184;-61
2023/01/29 10:04:25;;;;;;;3.00;1.87;;;;;;;17.72;50.87;101546.97;5058401;28;20701;-60
2023/01/29 10:06:59;;;;;;;3.00;1.83;;;;;;;17.76;50.74;101545.91;5051376;28;20978;-60
2023/01/29 10:09:38;;;;;;;2.50;1.77;;;;;;;17.76;50.57;101551.63;5059681;28;20867;-60
2023/01/29 10:12:34;;;;;;;2.80;1.90;;;;;;;17.77;50.53;101561.91;5061448;28;20516;-60
2023/01/29 10:15:18;;;;;;;3.10;1.60;;;;;;;17.74;50.50;101551.16;5052008;28;20418;-61
2023/01/29 10:17:50;;;;;;;3.47;2.13;;;;;;;17.74;50.56;101553.16;5020943;28;20455;-60
2023/01/29 10:20:24;;;;;;;2.33;1.50;;;;;;;17.77;50.35;101556.19;5052516;28;20468;-60
2023/01/29 10:23:13;;;;;;;2.50;1.40;;;;;;;17.79;50.30;101559.53;5068286;28;20810;-60
2023/01/29 10:25:39;;;;;;;2.50;1.77;;;;;;;17.73;50.52;101558.06;5048746;28;20440;-60
2023/01/29 10:28:33;;;;;;;3.73;1.77;;;;;;;17.74;50.50;101562.56;5052992;28;20430;-60
2023/01/29 10:31:10;;;;;;;2.67;1.70;;;;;;;17.76;50.51;101548.78;5022588;28;20972;-61
2023/01/29 10:33:40;;;;;;;1.90;1.30;;;;;;;17.78;50.50;101562.72;5034404;28;20418;-60
2023/01/29 10:36:12;;;;;;;2.20;1.50;;;;;;;17.76;50.24;101560.19;5072586;28;20429;-61
2023/01/29 10:38:42;;;;;;;2.73;1.80;;;;;;;17.80;50.35;101558.34;5052030;28;20424;-60
2023/01/29 10:41:13;;;;;;;3.43;1.83;;;;;;;17.76;50.64;101560.19;5055496;28;20434;-61
2023/01/29 10:44:00;;;;;;;2.30;1.60;;;;;;;17.72;50.82;101559.25;5050137;28;20445;-61
2023/01/29 10:46:46;;;;;;;3.20;2.03;;;;;;;17.73;50.57;101560.91;5033496;28;20445;-60
2023/01/29 10:49:30;;;;;;;3.83;2.13;;;;;;;17.74;50.79;101554.00;5052122;28;20459;-61
2023/01/29 10:52:03;;;;;;;2.07;1.40;;;;;;;17.72;50.67;101556.38;5066142;28;20932;-61
2023/01/29 10:54:57;;;;;;;2.93;1.63;;;;;;;17.79;50.21;101547.25;5070427;28;20425;-60
2023/01/29 10:57:46;;;;;;;2.43;1.40;;;;;;;17.78;50.49;101555.00;5070929;28;20413;-61
2023/01/29 11:00:20;;;;;;;2.93;1.50;;;;;;;17.84;50.25;101562.19;5068399;28;20422;-61
2023/01/29 11:02:49;;;;;;;2.43;1.67;;;;;;;17.85;50.14;101558.13;5035078;28;20453;-61
2023/01/29 11:05:35;;;;;;;2.93;1.87;;;;;;;17.78;50.09;101552.16;5051410;28;20875;-61
2023/01/29 11:08:04;;;;;;;2.33;1.40;;;;;;;17.80;50.42;101560.38;5027119;28;20423;-60
2023/01/29 11:10:31;;;;;;;2.40;1.30;;;;;;;17.85;50.18;101566.72;5050375;28;20468;-60
2023/01/29 11:12:57;;;;;;;2.87;1.70;;;;;;;17.88;50.07;101562.31;5053635;28;20946;-60
2023/01/29 11:15:25;;;;;;;2.50;1.50;;;;;;;17.85;50.21;101551.59;5053292;28;20425;-61
2023/01/29 11:18:12;;;;;;;2.83;1.67;;;;;;;17.80;50.61;101543.22;5053430;28;20510;-61
2023/01/29 11:20:38;;;;;;;2.67;1.57;;;;;;;17.82;50.29;101535.16;5071150;28;20397;-61
2023/01/29 11:23:03;;;;;;;2.77;1.90;;;;;;;17.78;50.21;101532.16;5066756;28;20495;-60
2023/01/29 11:25:31;;;;;;;3.17;1.37;;;;;;;17.84;50.18;101522.19;5062065;28;20182;-61
2023/01/29 11:28:00;;;;;;;2.17;1.50;;;;;;;17.87;50.57;101526.38;5070901;28;20171;-60
2023/01/29 11:30:34;;;;;;;2.63;1.53;;;;;;;17.86;49.94;101527.56;5037557;28;20599;-60
2023/01/29 11:33:18;;;;;;;2.20;1.37;;;;;;;17.80;50.55;101520.38;5067209;28;20971;-60
2023/01/29 11:35:43;;;;;;;2.30;1.57;;;;;;;17.79;50.33;101513.81;5087144;28;20470;-60
2023/01/29 11:38:29;;;;;;;2.57;1.40;;;;;;;17.83;50.48;101513.97;5089193;28;20416;-60
2023/01/29 11:41:04;;;;;;;2.43;1.70;;;;;;;17.86;49.82;101511.25;5069869;28;20221;-60
2023/01/29 11:43:30;;;;;;;2.70;1.80;;;;;;;17.78;50.52;101511.31;5071002;28;20836;-60
2023/01/29 11:46:03;;;;;;;3.77;1.50;;;;;;;17.85;50.53;101503.03;5070493;28;20428;-60
2023/01/29 11:48:38;;;;;;;2.53;1.87;;;;;;;17.78;50.23;101506.44;5063000;28;20240;-61
2023/01/29 11:51:04;;;;;;;3.20;1.73;;;;;;;17.84;50.46;101505.06;5016821;28;20911;-60
2023/01/29 11:53:35;;;;;;;2.07;1.30;;;;;;;17.82;50.53;101510.28;5052212;28;20452;-61
2023/01/29 11:56:06;;;;;;;3.40;1.80;;;;;;;17.81;50.18;101499.19;5050111;28;20577;-60
2023/01/29 11:58:32;;;;;;;2.00;1.40;;;;;;;17.81;50.15;101493.50;5046206;28;20425;-60
2023/01/29 12:00:57;;;;;;;3.10;1.60;;;;;;;17.84;50.54;101498.50;5052612;28;20463;-61
2023/01/29 12:03:33;;;;;;;2.23;1.60;;;;;;;17.85;50.01;101497.31;5050577;28;20775;-60